Terminal Aerodrome Forecast
Issued by NWS

Home | Current Version | Previous Version | Text Only | Print | Product List | Glossary On
Versions: 1 2 3 4 5 6 7 8 9 10 11 12 13 14 15 16 17 18
000
FTUS43 KIND 281500 AAA
TAFHUF
TAF AMD
KHUF 281524Z 2815/2912 33008KT P6SM SCT015
     FM281900 33005KT P6SM SCT020 BKN200
     FM282300 35003KT P6SM BKN200
     FM290300 03002KT P6SM SCT200=

USA.gov is the U.S. government's official web portal to all federal, state and local government web resources and services.